createdAt,value
2023-04-08T00:00:20.495Z,56.03
2023-04-08T00:01:20.478Z,50.70
2023-04-08T00:02:20.552Z,53.11
2023-04-08T00:03:20.616Z,56.81
2023-04-08T00:04:20.540Z,47.99
2023-04-08T00:05:20.446Z,53.06
2023-04-08T00:06:20.442Z,53.25
2023-04-08T00:07:20.443Z,60.82
2023-04-08T00:08:20.416Z,52.10
2023-04-08T00:09:20.429Z,52.22
2023-04-08T00:10:20.406Z,52.22
2023-04-08T00:11:20.419Z,52.71
2023-04-08T00:12:20.386Z,58.72
2023-04-08T00:13:20.377Z,52.29
2023-04-08T00:14:20.382Z,54.22
2023-04-08T00:15:20.381Z,53.47
2023-04-08T00:16:20.394Z,52.80
2023-04-08T00:17:21.092Z,54.18
2023-04-08T00:18:20.351Z,47.39
2023-04-08T00:19:20.342Z,47.27
2023-04-08T00:20:20.323Z,46.60
2023-04-08T00:21:20.322Z,50.90
2023-04-08T00:24:19.823Z,50.86
2023-04-08T00:25:22.930Z,51.08
2023-04-08T00:26:20.889Z,51.74
2023-04-08T00:27:20.869Z,56.58
2023-04-08T00:28:20.882Z,52.14
2023-04-08T00:29:20.869Z,44.73
2023-04-08T00:30:21.687Z,51.15
2023-04-08T00:31:21.040Z,53.71
2023-04-08T00:32:20.925Z,49.43
2023-04-08T00:33:20.867Z,48.42
2023-04-08T00:34:20.828Z,47.06
2023-04-08T00:35:20.829Z,50.96
2023-04-08T00:36:20.848Z,53.52
2023-04-08T00:37:20.808Z,45.80
2023-04-08T00:38:20.847Z,46.41
2023-04-08T00:39:20.788Z,52.69
2023-04-08T00:40:20.787Z,60.79
2023-04-08T00:41:21.751Z,45.74
2023-04-08T00:42:20.753Z,45.13
2023-04-08T00:43:20.767Z,55.37
2023-04-08T00:44:21.789Z,53.23
2023-04-08T00:45:20.753Z,53.45
2023-04-08T00:46:20.761Z,52.01
2023-04-08T00:47:20.758Z,46.20
2023-04-08T00:48:20.728Z,46.02
2023-04-08T00:49:20.697Z,58.08
2023-04-08T00:50:20.706Z,47.15
2023-04-08T00:51:20.691Z,53.05
2023-04-08T00:52:20.686Z,57.18
2023-04-08T00:53:20.663Z,52.29
2023-04-08T00:54:20.677Z,49.18
2023-04-08T00:55:21.173Z,56.43
2023-04-08T00:56:20.659Z,49.38
2023-04-08T00:57:20.674Z,44.33
2023-04-08T00:58:20.626Z,43.83
2023-04-08T00:59:21.259Z,43.41
2023-04-08T01:00:20.632Z,57.98
2023-04-08T01:01:20.633Z,48.62
2023-04-08T01:02:20.711Z,55.47
2023-04-08T01:03:20.697Z,49.85
2023-04-08T01:04:21.815Z,53.01
2023-04-08T01:05:20.601Z,42.12
2023-04-08T01:06:20.577Z,43.32
2023-04-08T01:07:20.583Z,49.69
2023-04-08T01:08:20.581Z,55.77
2023-04-08T01:09:20.558Z,49.39
2023-04-08T01:10:20.581Z,46.92
2023-04-08T01:11:20.545Z,44.95
2023-04-08T01:12:20.537Z,42.74
2023-04-08T01:13:20.534Z,43.19
2023-04-08T01:14:20.523Z,45.44
2023-04-08T01:15:20.513Z,49.35
2023-04-08T01:16:20.568Z,53.98
2023-04-08T01:17:20.567Z,44.81
2023-04-08T01:18:20.485Z,49.10
2023-04-08T01:19:20.474Z,48.60
2023-04-08T01:20:20.488Z,43.07
2023-04-08T01:21:20.465Z,42.89
2023-04-08T01:22:20.465Z,45.05
2023-04-08T01:23:20.451Z,45.63
2023-04-08T01:24:20.430Z,53.75
2023-04-08T01:25:21.439Z,48.53
2023-04-08T01:26:20.414Z,46.36
2023-04-08T01:27:20.422Z,52.46
2023-04-08T01:28:20.404Z,50.82
2023-04-08T01:29:20.773Z,54.12
2023-04-08T01:30:20.392Z,47.27
2023-04-08T01:31:20.442Z,57.26
2023-04-08T01:32:20.387Z,49.37
2023-04-08T01:33:20.375Z,47.54
2023-04-08T01:34:20.367Z,52.09
2023-04-08T01:35:20.411Z,47.46
2023-04-08T01:36:20.347Z,44.41
2023-04-08T01:37:20.384Z,55.48
2023-04-08T01:38:20.337Z,43.02
2023-04-08T01:39:20.344Z,45.15
2023-04-08T01:40:20.311Z,44.64
2023-04-08T01:41:20.304Z,58.03
2023-04-08T01:42:20.302Z,43.53
2023-04-08T01:43:20.300Z,43.31
2023-04-08T01:44:20.299Z,48.11
2023-04-08T01:47:27.649Z,42.88
2023-04-08T01:48:28.702Z,45.11
2023-04-08T01:49:28.695Z,53.81
2023-04-08T01:50:28.688Z,52.45
2023-04-08T01:51:28.678Z,53.23
2023-04-08T01:52:28.669Z,46.07
2023-04-08T01:53:29.563Z,58.44
2023-04-08T01:54:28.663Z,47.09
2023-04-08T01:55:28.676Z,49.70
2023-04-08T01:56:28.661Z,47.72
2023-04-08T01:57:29.577Z,48.06
2023-04-08T01:58:28.629Z,49.71
2023-04-08T01:59:28.612Z,41.38
2023-04-08T02:00:28.627Z,45.12
2023-04-08T02:01:28.739Z,44.28
2023-04-08T02:02:28.804Z,41.96
2023-04-08T02:03:29.030Z,51.06
2023-04-08T02:04:28.693Z,46.62
2023-04-08T02:05:28.627Z,47.58
2023-04-08T02:06:28.569Z,48.78
2023-04-08T02:07:28.562Z,51.29
2023-04-08T02:08:28.546Z,47.84
2023-04-08T02:09:28.548Z,46.73
2023-04-08T02:10:28.529Z,43.09
2023-04-08T02:11:28.543Z,55.15
2023-04-08T02:12:28.531Z,55.36
2023-04-08T02:13:28.508Z,46.16
2023-04-08T02:14:29.067Z,52.80
2023-04-08T02:15:28.512Z,45.81
2023-04-08T02:16:28.566Z,41.58
2023-04-08T02:17:28.514Z,44.02
2023-04-08T02:18:28.474Z,50.31
2023-04-08T02:19:28.459Z,46.19
2023-04-08T02:20:28.473Z,43.41
2023-04-08T02:21:28.473Z,47.73
2023-04-08T02:22:28.451Z,42.41
2023-04-08T02:23:28.440Z,41.42
2023-04-08T02:24:29.078Z,51.55
2023-04-08T02:25:28.427Z,55.82
2023-04-08T02:26:28.422Z,46.99
2023-04-08T02:27:29.117Z,49.90
2023-04-08T02:28:28.383Z,52.94
2023-04-08T02:29:28.432Z,49.83
2023-04-08T02:30:28.402Z,46.22
2023-04-08T02:31:28.399Z,48.35
2023-04-08T02:32:28.393Z,47.94
2023-04-08T02:33:28.363Z,41.32
2023-04-08T02:34:28.355Z,50.54
2023-04-08T02:35:28.365Z,54.58
2023-04-08T02:36:28.336Z,48.71
2023-04-08T02:37:28.373Z,41.50
2023-04-08T02:38:28.303Z,49.86
2023-04-08T02:39:28.308Z,47.12
2023-04-08T02:40:28.315Z,52.01
2023-04-08T02:41:28.298Z,47.24
2023-04-08T02:42:28.285Z,51.54
2023-04-08T02:43:28.273Z,50.16
2023-04-08T02:44:28.265Z,44.70
2023-04-08T02:45:28.327Z,43.86
2023-04-08T02:46:28.255Z,56.09
2023-04-08T02:47:28.255Z,48.33
2023-04-08T02:48:28.248Z,43.51
2023-04-08T02:49:28.232Z,55.21
2023-04-08T02:50:28.242Z,56.16
2023-04-08T02:51:28.241Z,55.09
2023-04-08T02:52:28.204Z,50.58
2023-04-08T02:53:28.208Z,45.20
2023-04-08T02:54:28.185Z,54.22
2023-04-08T02:55:28.188Z,45.15
2023-04-08T02:56:28.157Z,41.82
2023-04-08T02:57:29.077Z,48.71
2023-04-08T02:58:28.167Z,51.81
2023-04-08T02:59:28.141Z,42.21
2023-04-08T03:00:28.150Z,45.54
2023-04-08T03:01:28.164Z,46.28
2023-04-08T03:02:28.252Z,44.05
2023-04-08T03:03:28.251Z,46.95
2023-04-08T03:04:28.103Z,54.56
2023-04-08T03:05:28.106Z,50.21
2023-04-08T03:06:28.100Z,46.59
2023-04-08T03:07:28.088Z,41.92
2023-04-08T03:08:28.065Z,53.54
2023-04-08T03:09:28.082Z,44.66
2023-04-08T03:10:28.063Z,50.78
2023-04-08T03:11:28.037Z,56.20
2023-04-08T03:12:29.061Z,55.51
2023-04-08T03:13:28.053Z,49.04
2023-04-08T03:14:28.045Z,46.56
2023-04-08T03:15:28.006Z,55.67
2023-04-08T03:16:28.070Z,53.01
2023-04-08T03:17:28.004Z,60.57
2023-04-08T03:18:28.010Z,50.65
2023-04-08T03:19:27.990Z,56.40
2023-04-08T03:20:27.981Z,58.31
2023-04-08T03:21:27.971Z,56.87
2023-04-08T03:22:27.951Z,57.67
2023-04-08T03:23:27.958Z,60.02
2023-04-08T03:24:27.954Z,56.86
2023-04-08T03:25:27.968Z,58.21
2023-04-08T03:26:27.941Z,57.48
2023-04-08T03:27:27.934Z,54.48
2023-04-08T03:28:27.922Z,55.80
2023-04-08T03:29:27.923Z,49.29
2023-04-08T03:30:27.952Z,57.10
2023-04-08T03:31:27.888Z,53.06
2023-04-08T03:32:27.961Z,60.29
2023-04-08T03:33:27.866Z,57.85
2023-04-08T03:34:27.867Z,56.11
2023-04-08T03:35:27.926Z,57.90
2023-04-08T03:36:27.870Z,56.79
2023-04-08T03:37:27.841Z,54.01
2023-04-08T03:38:27.825Z,59.16
2023-04-08T03:39:27.827Z,61.98
2023-04-08T03:40:27.829Z,55.66
2023-04-08T03:41:27.804Z,57.47
2023-04-08T03:42:27.813Z,58.50
2023-04-08T03:43:27.804Z,55.64
2023-04-08T03:44:27.786Z,54.86
2023-04-08T03:45:27.788Z,57.65
2023-04-08T03:46:27.831Z,52.75
2023-04-08T03:47:27.789Z,61.12
2023-04-08T03:48:27.762Z,55.76
2023-04-08T03:49:27.747Z,59.95
2023-04-08T03:50:28.994Z,58.91
2023-04-08T03:51:27.729Z,57.35
2023-04-08T03:52:27.733Z,58.83
2023-04-08T03:53:27.736Z,51.55
2023-04-08T03:54:27.712Z,58.79
2023-04-08T03:55:27.780Z,61.69
2023-04-08T03:56:27.705Z,52.84
2023-04-08T03:57:27.694Z,51.86
2023-04-08T03:58:27.696Z,55.16
2023-04-08T03:59:27.671Z,58.46
2023-04-08T04:00:27.668Z,53.99
2023-04-08T04:01:27.665Z,53.12
2023-04-08T04:02:27.883Z,51.08
2023-04-08T04:03:27.810Z,57.55
2023-04-08T04:04:27.770Z,49.30
2023-04-08T04:05:27.634Z,53.18
2023-04-08T04:06:28.499Z,57.95
2023-04-08T04:07:27.595Z,54.90
2023-04-08T04:08:28.592Z,57.67
2023-04-08T04:09:27.581Z,59.33
2023-04-08T04:10:27.584Z,57.86
2023-04-08T04:11:27.574Z,54.00
2023-04-08T04:12:27.599Z,58.83
2023-04-08T04:13:27.554Z,59.06
2023-04-08T04:14:27.543Z,53.46
2023-04-08T04:15:28.575Z,54.62
2023-04-08T04:16:27.534Z,59.14
2023-04-08T04:17:27.543Z,54.07
2023-04-08T04:18:27.529Z,54.73
2023-04-08T04:19:27.513Z,53.00
2023-04-08T04:20:27.545Z,51.69
2023-04-08T04:21:27.495Z,66.71
2023-04-08T04:22:27.504Z,74.30
2023-04-08T04:23:27.474Z,61.13
2023-04-08T04:24:27.471Z,60.61
2023-04-08T04:25:28.016Z,64.34
2023-04-08T04:26:27.453Z,57.40
2023-04-08T04:27:27.434Z,55.15
2023-04-08T04:28:27.437Z,55.49
2023-04-08T04:29:27.438Z,49.70
2023-04-08T04:30:27.420Z,55.27
2023-04-08T04:31:27.464Z,55.23
2023-04-08T04:32:27.408Z,58.32
2023-04-08T04:33:27.411Z,59.70
2023-04-08T04:34:27.413Z,52.16
2023-04-08T04:35:27.419Z,51.97
2023-04-08T04:36:27.367Z,61.65
2023-04-08T04:37:27.361Z,59.88
2023-04-08T04:38:27.343Z,56.31
2023-04-08T04:39:27.337Z,58.44
2023-04-08T04:40:27.343Z,59.87
2023-04-08T04:41:27.353Z,54.23
2023-04-08T04:42:27.321Z,56.64
2023-04-08T04:43:27.317Z,56.84
2023-04-08T04:44:27.295Z,56.13
2023-04-08T04:45:27.291Z,56.00
2023-04-08T04:46:27.332Z,58.21
2023-04-08T04:47:27.293Z,54.05
2023-04-08T04:48:27.290Z,56.95
2023-04-08T04:49:27.276Z,54.92
2023-04-08T04:50:27.291Z,58.28
2023-04-08T04:51:27.275Z,58.38
2023-04-08T04:52:27.247Z,61.05
2023-04-08T04:53:27.241Z,54.71
2023-04-08T04:54:27.230Z,59.80
2023-04-08T04:55:27.233Z,57.12
2023-04-08T04:56:27.208Z,53.43
2023-04-08T04:57:27.215Z,57.06
2023-04-08T04:58:27.197Z,52.44
2023-04-08T04:59:27.184Z,56.86
2023-04-08T05:00:28.082Z,60.64
2023-04-08T05:01:27.207Z,58.18
2023-04-08T05:02:27.280Z,61.59
2023-04-08T05:03:27.205Z,58.22
2023-04-08T05:04:27.158Z,56.28
2023-04-08T05:05:27.158Z,61.33
2023-04-08T05:06:27.149Z,62.88
2023-04-08T05:07:27.131Z,54.58
2023-04-08T05:08:28.119Z,58.56
2023-04-08T05:09:28.139Z,61.60
2023-04-08T05:10:27.120Z,51.48
2023-04-08T05:11:27.099Z,55.01
2023-04-08T05:12:27.098Z,56.76
2023-04-08T05:13:27.086Z,58.61
2023-04-08T05:14:27.069Z,57.51
2023-04-08T05:15:27.076Z,60.75
2023-04-08T05:16:27.172Z,57.64
2023-04-08T05:17:27.100Z,59.33
2023-04-08T05:18:27.045Z,60.09
2023-04-08T05:19:27.046Z,58.80
2023-04-08T05:20:27.039Z,56.01
2023-04-08T05:21:27.029Z,59.97
2023-04-08T05:22:27.026Z,60.44
2023-04-08T05:23:27.025Z,60.49
2023-04-08T05:24:27.010Z,60.26
2023-04-08T05:25:26.990Z,58.86
2023-04-08T05:26:27.004Z,62.99
2023-04-08T05:27:26.984Z,63.74
2023-04-08T05:28:26.979Z,56.58
2023-04-08T05:29:26.961Z,60.53
2023-04-08T05:30:26.948Z,60.95
2023-04-08T05:31:27.010Z,56.74
2023-04-08T05:32:26.978Z,62.60
2023-04-08T05:33:26.953Z,59.11
2023-04-08T05:34:26.954Z,61.77
2023-04-08T05:35:26.987Z,60.82
2023-04-08T05:36:26.910Z,64.74
2023-04-08T05:37:27.906Z,66.81
2023-04-08T05:38:26.902Z,66.91
2023-04-08T05:39:26.915Z,70.63
2023-04-08T05:40:26.903Z,62.82
2023-04-08T05:41:26.880Z,63.76
2023-04-08T05:42:26.870Z,61.01
2023-04-08T05:43:26.858Z,59.99
2023-04-08T05:44:28.524Z,61.20
2023-04-08T05:45:26.837Z,61.63
2023-04-08T05:46:26.884Z,60.14
2023-04-08T05:47:26.858Z,61.31
2023-04-08T05:48:26.834Z,62.32
2023-04-08T05:49:27.599Z,63.02
2023-04-08T05:50:26.806Z,59.76
2023-04-08T05:51:26.820Z,62.35
2023-04-08T05:52:26.776Z,60.57
2023-04-08T05:53:26.786Z,63.51
2023-04-08T05:54:26.760Z,63.33
2023-04-08T05:55:26.765Z,65.65
2023-04-08T05:56:26.756Z,64.19
2023-04-08T05:57:26.743Z,61.64
2023-04-08T05:58:26.732Z,60.20
2023-04-08T05:59:26.728Z,62.35
2023-04-08T06:00:26.720Z,60.13
2023-04-08T06:01:26.721Z,63.57
2023-04-08T06:02:26.842Z,62.03
2023-04-08T06:03:26.857Z,63.86
2023-04-08T06:04:26.786Z,61.85
2023-04-08T06:05:26.671Z,61.66
2023-04-08T06:06:26.673Z,59.66
2023-04-08T06:07:26.658Z,58.14
2023-04-08T06:08:26.667Z,60.44
2023-04-08T06:09:26.754Z,58.56
2023-04-08T06:10:26.642Z,61.65
2023-04-08T06:11:26.623Z,63.60
2023-04-08T06:12:26.603Z,62.34
2023-04-08T06:13:26.592Z,60.28
2023-04-08T06:14:26.593Z,60.43
2023-04-08T06:15:26.579Z,60.49
2023-04-08T06:16:26.628Z,61.15
2023-04-08T06:17:26.594Z,61.77
2023-04-08T06:18:26.576Z,62.74
2023-04-08T06:19:26.550Z,62.08
2023-04-08T06:20:26.570Z,62.73
2023-04-08T06:21:26.588Z,61.93
2023-04-08T06:22:26.584Z,64.90
2023-04-08T06:23:26.530Z,63.44
2023-04-08T06:24:26.512Z,66.62
2023-04-08T06:25:26.576Z,65.46
2023-04-08T06:26:26.519Z,63.52
2023-04-08T06:27:26.494Z,61.89
2023-04-08T06:28:26.482Z,63.13
2023-04-08T06:29:26.490Z,61.46
2023-04-08T06:30:26.466Z,65.73
2023-04-08T06:31:26.506Z,61.07
2023-04-08T06:32:26.499Z,63.26
2023-04-08T06:33:26.436Z,61.37
2023-04-08T06:34:26.439Z,62.82
2023-04-08T06:35:26.454Z,62.18
2023-04-08T06:36:26.410Z,62.36
2023-04-08T06:37:26.438Z,63.05
2023-04-08T06:38:26.403Z,62.92
2023-04-08T06:39:26.396Z,62.04
2023-04-08T06:40:26.387Z,61.10
2023-04-08T06:41:26.389Z,62.31
2023-04-08T06:42:26.362Z,63.53
2023-04-08T06:43:26.369Z,60.64
2023-04-08T06:44:26.345Z,62.21
2023-04-08T06:45:26.345Z,61.62
2023-04-08T06:46:26.420Z,60.18
2023-04-08T06:47:26.373Z,65.04
2023-04-08T06:48:26.326Z,61.46
2023-04-08T06:49:27.144Z,62.00
2023-04-08T06:50:26.312Z,61.11
2023-04-08T06:51:26.314Z,62.89
2023-04-08T06:52:26.299Z,62.17
2023-04-08T06:53:26.284Z,64.30
2023-04-08T06:54:26.290Z,65.11
2023-04-08T06:55:26.317Z,65.79
2023-04-08T06:56:26.281Z,62.48
2023-04-08T06:57:26.253Z,61.62
2023-04-08T06:58:26.257Z,62.19
2023-04-08T06:59:26.233Z,69.43
2023-04-08T07:00:26.326Z,65.05
2023-04-08T07:01:26.268Z,62.66
2023-04-08T07:02:26.287Z,63.07
2023-04-08T07:03:26.264Z,63.80
2023-04-08T07:04:26.258Z,65.44
2023-04-08T07:05:26.198Z,63.64
2023-04-08T07:06:26.213Z,63.41
2023-04-08T07:07:26.179Z,62.60
2023-04-08T07:08:26.175Z,62.82
2023-04-08T07:09:26.186Z,65.17
2023-04-08T07:10:26.176Z,63.13
2023-04-08T07:11:26.153Z,62.14
2023-04-08T07:12:26.141Z,62.66
2023-04-08T07:13:26.157Z,61.54
2023-04-08T07:14:26.154Z,63.56
2023-04-08T07:15:26.115Z,63.01
2023-04-08T07:16:26.139Z,64.09
2023-04-08T07:17:26.116Z,63.26
2023-04-08T07:18:26.112Z,62.40
2023-04-08T07:19:26.095Z,63.69
2023-04-08T07:20:26.145Z,64.91
2023-04-08T07:21:26.066Z,66.18
2023-04-08T07:22:26.170Z,67.40
2023-04-08T07:23:26.050Z,65.80
2023-04-08T07:24:26.054Z,64.85
2023-04-08T07:25:26.074Z,66.10
2023-04-08T07:26:26.032Z,63.83
2023-04-08T07:27:26.027Z,62.68
2023-04-08T07:28:26.017Z,66.36
2023-04-08T07:29:26.033Z,62.91
2023-04-08T07:30:26.001Z,63.12
2023-04-08T07:31:26.054Z,64.07
2023-04-08T07:32:25.995Z,66.35
2023-04-08T07:33:25.990Z,65.28
2023-04-08T07:34:25.978Z,63.19
2023-04-08T07:35:25.982Z,63.14
2023-04-08T07:36:25.952Z,64.38
2023-04-08T07:37:25.963Z,66.21
2023-04-08T07:38:25.936Z,66.74
2023-04-08T07:39:25.927Z,64.36
2023-04-08T07:40:25.968Z,62.64
2023-04-08T07:41:25.909Z,64.51
2023-04-08T07:42:25.896Z,65.22
2023-04-08T07:43:25.897Z,62.12
2023-04-08T07:44:26.546Z,65.26
2023-04-08T07:45:25.904Z,64.06
2023-04-08T07:46:25.934Z,62.88
2023-04-08T07:47:25.892Z,64.18
2023-04-08T07:48:25.859Z,64.13
2023-04-08T07:49:25.860Z,66.55
2023-04-08T07:50:25.835Z,64.83
2023-04-08T07:51:25.841Z,63.94
2023-04-08T07:52:25.830Z,66.03
2023-04-08T07:53:25.820Z,65.31
2023-04-08T07:54:25.810Z,64.75
2023-04-08T07:55:25.833Z,65.27
2023-04-08T07:56:25.804Z,65.46
2023-04-08T07:57:25.783Z,65.53
2023-04-08T07:58:25.777Z,64.40
2023-04-08T07:59:25.957Z,64.56
2023-04-08T08:00:25.760Z,68.01
2023-04-08T08:01:25.765Z,63.58
2023-04-08T08:02:25.836Z,65.19
2023-04-08T08:03:25.903Z,65.67
2023-04-08T08:04:25.932Z,63.56
2023-04-08T08:05:25.725Z,64.56
2023-04-08T08:06:25.734Z,66.79
2023-04-08T08:07:25.709Z,66.16
2023-04-08T08:08:25.691Z,64.87
2023-04-08T08:09:25.746Z,65.25
2023-04-08T08:10:25.685Z,63.27
2023-04-08T08:11:25.692Z,64.11
2023-04-08T08:12:25.666Z,63.97
2023-04-08T08:13:25.673Z,64.03
2023-04-08T08:14:25.653Z,63.17
2023-04-08T08:15:25.674Z,64.90
2023-04-08T08:16:25.759Z,66.93
2023-04-08T08:17:28.210Z,65.52
2023-04-08T08:18:26.623Z,65.34
2023-04-08T08:19:25.620Z,64.58
2023-04-08T08:20:26.625Z,65.29
2023-04-08T08:21:25.611Z,65.77
2023-04-08T08:22:25.595Z,65.70
2023-04-08T08:23:25.605Z,65.41
2023-04-08T08:24:25.583Z,68.75
2023-04-08T08:25:26.450Z,67.45
2023-04-08T08:26:26.570Z,67.12
2023-04-08T08:27:25.566Z,66.21
2023-04-08T08:28:25.563Z,64.93
2023-04-08T08:29:25.541Z,66.76
2023-04-08T08:30:25.525Z,67.93
2023-04-08T08:31:25.606Z,66.02
2023-04-08T08:32:25.569Z,65.23
2023-04-08T08:33:25.550Z,65.75
2023-04-08T08:34:25.499Z,65.01
2023-04-08T08:35:25.511Z,65.43
2023-04-08T08:36:25.493Z,66.58
2023-04-08T08:37:25.495Z,67.34
2023-04-08T08:38:25.477Z,64.83
2023-04-08T08:39:25.461Z,64.74
2023-04-08T08:40:25.458Z,64.34
2023-04-08T08:41:25.489Z,63.55
2023-04-08T08:42:25.449Z,65.81
2023-04-08T08:43:25.454Z,63.87
2023-04-08T08:44:25.422Z,65.32
2023-04-08T08:45:25.415Z,65.54
2023-04-08T08:46:25.457Z,63.67
2023-04-08T08:47:25.436Z,65.37
2023-04-08T08:48:25.385Z,66.15
2023-04-08T08:49:25.416Z,63.87
2023-04-08T08:50:25.375Z,66.05
2023-04-08T08:51:25.362Z,66.29
2023-04-08T08:52:26.069Z,66.87
2023-04-08T08:53:25.342Z,64.46
2023-04-08T08:54:25.348Z,67.32
2023-04-08T08:55:39.535Z,66.20
2023-04-08T08:56:27.334Z,67.80
2023-04-08T08:57:26.061Z,66.97
2023-04-08T08:58:25.321Z,66.04
2023-04-08T08:59:25.319Z,65.09
2023-04-08T09:00:25.311Z,67.06
2023-04-08T09:01:25.335Z,66.32
2023-04-08T09:02:25.417Z,66.06
2023-04-08T09:03:25.476Z,66.95
2023-04-08T09:04:25.328Z,66.77
2023-04-08T09:05:25.307Z,65.17
2023-04-08T09:06:25.239Z,69.21
2023-04-08T09:07:25.243Z,64.26
2023-04-08T09:08:25.227Z,64.12
2023-04-08T09:09:25.234Z,65.15
2023-04-08T09:10:25.212Z,64.14
2023-04-08T09:11:25.209Z,65.34
2023-04-08T09:12:25.192Z,67.55
2023-04-08T09:13:25.176Z,65.42
2023-04-08T09:14:25.199Z,64.82
2023-04-08T09:15:25.188Z,65.43
2023-04-08T09:16:25.182Z,65.86
2023-04-08T09:17:25.213Z,65.48
2023-04-08T09:18:25.162Z,65.69
2023-04-08T09:19:25.139Z,65.27
2023-04-08T09:20:25.141Z,67.37
2023-04-08T09:21:25.134Z,68.86
2023-04-08T09:22:25.115Z,64.62
2023-04-08T09:23:25.118Z,68.29
2023-04-08T09:24:25.091Z,68.39
2023-04-08T09:25:25.102Z,65.56
2023-04-08T09:26:25.080Z,64.42
2023-04-08T09:27:25.079Z,65.17
2023-04-08T09:28:25.067Z,64.98
2023-04-08T09:29:26.301Z,65.55
2023-04-08T09:30:26.057Z,66.58
2023-04-08T09:31:25.059Z,63.89
2023-04-08T09:32:25.089Z,64.71
2023-04-08T09:33:25.028Z,66.55
2023-04-08T09:34:25.025Z,64.42
2023-04-08T09:35:25.086Z,66.16
2023-04-08T09:36:24.999Z,66.28
2023-04-08T09:37:25.008Z,66.32
2023-04-08T09:38:24.979Z,67.04
2023-04-08T09:39:24.980Z,65.11
2023-04-08T09:40:24.996Z,63.07
2023-04-08T09:41:24.960Z,65.59
2023-04-08T09:42:24.978Z,65.97
2023-04-08T09:43:24.948Z,64.33
2023-04-08T09:44:24.938Z,63.74
2023-04-08T09:45:24.987Z,65.10
2023-04-08T09:46:24.930Z,66.23
2023-04-08T09:47:24.965Z,64.43
2023-04-08T09:48:24.919Z,65.54
2023-04-08T09:49:24.914Z,64.23
2023-04-08T09:50:24.905Z,65.93
2023-04-08T09:51:24.887Z,65.51
2023-04-08T09:52:24.927Z,65.97
2023-04-08T09:53:24.867Z,64.74
2023-04-08T09:54:24.867Z,66.28
2023-04-08T09:55:24.868Z,66.67
2023-04-08T09:56:24.868Z,67.67
2023-04-08T09:57:24.848Z,66.45
2023-04-08T09:58:24.848Z,65.82
2023-04-08T09:59:24.833Z,64.54
2023-04-08T10:00:24.809Z,67.29
2023-04-08T10:01:24.876Z,65.93
2023-04-08T10:02:24.883Z,64.30
2023-04-08T10:03:25.817Z,67.15
2023-04-08T10:04:25.714Z,64.21
2023-04-08T10:05:25.832Z,64.25
2023-04-08T10:06:24.773Z,65.45
2023-04-08T10:07:24.783Z,65.98
2023-04-08T10:08:24.760Z,66.57
2023-04-08T10:09:24.757Z,68.17
2023-04-08T10:10:24.740Z,65.16
2023-04-08T10:11:24.732Z,66.05
2023-04-08T10:12:24.742Z,65.31
2023-04-08T10:13:24.716Z,64.73
2023-04-08T10:14:24.697Z,66.02
2023-04-08T10:15:24.700Z,65.15
2023-04-08T10:16:24.849Z,63.32
2023-04-08T10:17:24.723Z,65.77
2023-04-08T10:18:24.667Z,63.55
2023-04-08T10:19:24.653Z,65.73
2023-04-08T10:20:24.657Z,65.55
2023-04-08T10:21:24.661Z,65.65
2023-04-08T10:22:24.652Z,64.08
2023-04-08T10:23:24.652Z,68.51
2023-04-08T10:24:24.625Z,68.31
2023-04-08T10:25:24.624Z,67.68
2023-04-08T10:26:24.622Z,67.52
2023-04-08T10:27:24.637Z,65.38
2023-04-08T10:28:25.158Z,65.93
2023-04-08T10:29:25.155Z,68.22
2023-04-08T10:30:24.587Z,67.34
2023-04-08T10:31:24.633Z,64.11
2023-04-08T10:32:24.591Z,63.86
2023-04-08T10:33:24.558Z,65.51
2023-04-08T10:34:24.566Z,69.52
2023-04-08T10:35:24.582Z,65.34
2023-04-08T10:36:24.534Z,65.56
2023-04-08T10:37:24.527Z,64.69
2023-04-08T10:38:24.557Z,66.07
2023-04-08T10:39:24.508Z,66.24
2023-04-08T10:40:24.504Z,65.24
2023-04-08T10:41:24.502Z,66.95
2023-04-08T10:42:24.487Z,65.93
2023-04-08T10:43:24.475Z,64.28
2023-04-08T10:44:24.468Z,64.73
2023-04-08T10:45:25.156Z,63.57
2023-04-08T10:46:25.492Z,64.19
2023-04-08T10:47:24.472Z,65.02
2023-04-08T10:48:24.468Z,67.92
2023-04-08T10:49:25.079Z,63.42
2023-04-08T10:50:24.437Z,65.98
2023-04-08T10:51:24.437Z,64.47
2023-04-08T10:52:24.421Z,66.50
2023-04-08T10:53:24.400Z,65.09
2023-04-08T10:54:24.395Z,67.06
2023-04-08T10:55:24.397Z,66.56
2023-04-08T10:56:24.397Z,64.36
2023-04-08T10:57:24.396Z,65.45
2023-04-08T10:58:24.377Z,66.26
2023-04-08T10:59:24.350Z,65.31
2023-04-08T11:00:24.358Z,66.34
2023-04-08T11:01:24.370Z,64.99
2023-04-08T11:02:24.463Z,65.33
2023-04-08T11:03:24.498Z,64.00
2023-04-08T11:04:24.369Z,66.38
2023-04-08T11:05:24.355Z,64.57
2023-04-08T11:06:24.301Z,64.72
2023-04-08T11:07:24.294Z,63.10
2023-04-08T11:08:24.291Z,63.77
2023-04-08T11:09:24.280Z,64.65
2023-04-08T11:10:24.305Z,64.91
2023-04-08T11:11:24.257Z,64.73
2023-04-08T11:12:24.266Z,65.05
2023-04-08T11:13:24.240Z,64.75
2023-04-08T11:14:24.249Z,65.18
2023-04-08T11:15:24.250Z,63.90
2023-04-08T11:16:24.306Z,65.49
2023-04-08T11:17:24.279Z,64.04
2023-04-08T11:18:24.199Z,66.73
2023-04-08T11:19:24.231Z,64.72
2023-04-08T11:20:24.182Z,65.36
2023-04-08T11:21:24.198Z,65.23
2023-04-08T11:22:24.179Z,66.13
2023-04-08T11:23:24.162Z,64.75
2023-04-08T11:24:24.188Z,66.69
2023-04-08T11:25:24.160Z,68.08
2023-04-08T11:26:24.187Z,65.98
2023-04-08T11:27:24.157Z,65.17
2023-04-08T11:28:24.132Z,65.39
2023-04-08T11:29:24.144Z,66.14
2023-04-08T11:30:24.148Z,69.76
2023-04-08T11:31:25.087Z,67.00
2023-04-08T11:32:25.162Z,65.54
2023-04-08T11:33:24.085Z,72.45
2023-04-08T11:34:24.098Z,65.60
2023-04-08T11:35:24.075Z,65.37
2023-04-08T11:36:24.073Z,65.02
2023-04-08T11:37:24.063Z,66.39
2023-04-08T11:38:24.063Z,64.84
2023-04-08T11:39:24.073Z,66.30
2023-04-08T11:40:24.025Z,64.54
2023-04-08T11:41:24.101Z,65.88
2023-04-08T11:42:24.013Z,65.04
2023-04-08T11:43:24.007Z,65.69
2023-04-08T11:44:23.997Z,64.21
2023-04-08T11:45:24.673Z,65.10
2023-04-08T11:46:24.727Z,63.17
2023-04-08T11:47:24.003Z,62.41
2023-04-08T11:48:24.067Z,65.89
2023-04-08T11:49:24.613Z,65.12
2023-04-08T11:50:23.981Z,65.08
2023-04-08T11:51:23.956Z,62.63
2023-04-08T11:52:23.945Z,65.68
2023-04-08T11:53:23.923Z,65.59
2023-04-08T11:54:23.931Z,64.48
2023-04-08T11:55:23.925Z,64.95
2023-04-08T11:56:23.949Z,66.16
2023-04-08T11:57:23.898Z,63.64
2023-04-08T11:58:23.898Z,64.33
2023-04-08T11:59:25.378Z,63.51
2023-04-08T12:00:23.883Z,64.95
2023-04-08T12:01:23.876Z,64.92
2023-04-08T12:02:23.963Z,67.08
2023-04-08T12:03:23.998Z,66.60
2023-04-08T12:04:23.918Z,65.04
2023-04-08T12:05:23.842Z,67.05
2023-04-08T12:06:23.826Z,64.82
2023-04-08T12:07:24.687Z,65.68
2023-04-08T12:08:23.815Z,67.06
2023-04-08T12:09:23.798Z,64.19
2023-04-08T12:10:23.802Z,63.76
2023-04-08T12:11:23.828Z,65.59
2023-04-08T12:12:23.785Z,63.20
2023-04-08T12:13:23.784Z,64.07
2023-04-08T12:14:23.957Z,64.97
2023-04-08T12:15:23.810Z,63.30
2023-04-08T12:16:23.797Z,63.61
2023-04-08T12:17:23.749Z,65.15
2023-04-08T12:18:23.736Z,64.07
2023-04-08T12:19:23.769Z,63.43
2023-04-08T12:20:23.712Z,64.32
2023-04-08T12:21:23.719Z,64.84
2023-04-08T12:22:23.707Z,66.84
2023-04-08T12:23:23.722Z,66.35
2023-04-08T12:24:23.687Z,64.66
2023-04-08T12:25:23.694Z,63.90
2023-04-08T12:26:23.682Z,65.26
2023-04-08T12:29:30.514Z,64.35
2023-04-08T12:30:30.504Z,63.64
2023-04-08T12:31:30.539Z,64.76
2023-04-08T12:32:30.518Z,66.38
2023-04-08T12:33:30.495Z,63.07
2023-04-08T12:34:30.469Z,65.05
2023-04-08T12:35:30.461Z,64.32
2023-04-08T12:36:30.483Z,66.31
2023-04-08T12:37:31.365Z,66.25
2023-04-08T12:38:30.448Z,68.86
2023-04-08T12:39:30.435Z,64.79
2023-04-08T12:40:30.426Z,63.75
2023-04-08T12:41:30.429Z,62.62
2023-04-08T12:42:30.448Z,65.74
2023-04-08T12:43:30.407Z,63.46
2023-04-08T12:44:30.401Z,63.98
2023-04-08T12:45:30.397Z,64.70
2023-04-08T12:46:30.415Z,64.48
2023-04-08T12:47:30.460Z,64.99
2023-04-08T12:48:30.384Z,65.45
2023-04-08T12:49:34.104Z,63.51
2023-04-08T12:50:31.354Z,65.17
2023-04-08T12:51:30.356Z,66.49
2023-04-08T12:52:30.331Z,65.96
2023-04-08T12:53:30.321Z,67.20
2023-04-08T12:54:30.328Z,65.96
2023-04-08T12:55:30.313Z,63.88
2023-04-08T12:56:30.301Z,65.40
2023-04-08T12:57:30.287Z,64.71
2023-04-08T12:58:30.280Z,64.51